Alfred, ME (04002)

4:05 PM EDT on March 30, 2015 (GMT -0400)
Munnick Point | | Change Station
CLOSE
Current Station
Personal Weather Station
Location: Lyman, ME
Elevation: 322 ft
Nearby Weather Stations

Elev 322 ft 43.51 °N, 70.66 °W | Updated 2 seconds ago

Overcast
Overcast
37.4 °F
Feels Like 37 °F
N
2.3
Wind Variable Wind from SSW
Gusts 7.0 mph

Today
High -- | Low -- °F
--% Chance of Precip.
Yesterday
High -- | Low -- °F
Precip. -- in
6:28 AM 7:06 PM
Waxing Gibbous, 82% visible
Pressure 29.68 in
Visibility 10.0 miles
Clouds Mostly Cloudy 2000 ft
Mostly Cloudy 2700 ft
Overcast 6000 ft
Windchill 37 °F
Dew Point 32 °F
Humidity 82%
Rainfall 0.00 in
Snow Depth Not available.
UV 1 out of 12
Pollen 3.20 out of 12
Air Quality Not available.
Flu Activity Not available.
METAR KSFM 301955Z AUTO 22006KT 10SM BKN020 BKN027 OVC060 04/M03 A2968 RMK AO1

More Conditions Fewer Conditions

Pressure 29.68 in
Visibility 10.0 miles
Clouds Mostly Cloudy 2000 ft
Mostly Cloudy 2700 ft
Overcast 6000 ft
Windchill 37 °F
Dew Point 32 °F
Humidity 82%
Rainfall 0.00 in
Snow Depth Not available.
UV 1 out of 12
Pollen 3.20 out of 12
Air Quality Not available.
Flu Activity Not available.
METAR KSFM 301955Z AUTO 22006KT 10SM BKN020 BKN027 OVC060 04/M03 A2968 RMK AO1

More Conditions Fewer Conditions

10-Day Weather Forecast

Almanac

Astronomy

Mar. 30, 2015 Rise Set
Actual Time
Civil Twilight
Nautical Twilight
Astronomical Twilight
Moon
Length of Visible Light
Length of Day
Tomorrow will be .
, % of the Moon is Illuminated

Today's Extremes

State Highs State Lows

Community

WunderPhotos

Upload Photos

1,809,578 photos uploaded!

WunderBlogs® & News

Nearby

Air Quality

  Air Quality AQ Index Pollutant
Not available.

Snow Depth

Station Depth Elevation

Earthquake Activity

City Distance Mag. Time & Date
Minimum magnitude displayed is 2.5.

Coastal Water Temperatures

Place Temperature

Stations

Nearby Weather Stations

Station Location Temp. Windchill Dew Point Humidity Wind Precip. Elev Updated Type